createdAt,value
2022-12-08T00:05:06.804Z,31.80
2022-12-08T00:10:48.364Z,32.20
2022-12-08T00:16:10.600Z,31.80
2022-12-08T00:21:32.575Z,25.40
2022-12-08T00:26:54.799Z,30.40
2022-12-08T00:32:17.117Z,29.00
2022-12-08T00:37:39.059Z,26.20
2022-12-08T00:43:00.690Z,31.00
2022-12-08T00:48:23.017Z,32.80
2022-12-08T00:53:45.255Z,34.70
2022-12-08T00:59:08.183Z,32.40
2022-12-08T01:04:30.413Z,29.70
2022-12-08T01:09:53.044Z,27.70
2022-12-08T01:15:15.775Z,29.70
2022-12-08T01:20:37.909Z,27.50
2022-12-08T01:26:07.700Z,26.20
2022-12-08T01:31:29.458Z,26.30
2022-12-08T01:36:51.491Z,29.00
2022-12-08T01:42:22.061Z,33.60
2022-12-08T01:47:47.783Z,33.80
2022-12-08T01:53:22.196Z,28.50
2022-12-08T01:58:48.641Z,36.20
2022-12-08T02:04:10.872Z,29.60
2022-12-08T02:09:33.104Z,28.40
2022-12-08T02:14:55.384Z,25.50
2022-12-08T02:20:31.737Z,24.80
2022-12-08T02:26:24.511Z,31.90
2022-12-08T02:32:24.315Z,25.00
2022-12-08T02:43:35.989Z,22.60
2022-12-08T02:48:59.527Z,23.20
2022-12-08T02:54:21.540Z,25.00
2022-12-08T02:59:52.705Z,28.60
2022-12-08T03:05:26.431Z,27.70
2022-12-08T03:11:09.973Z,25.00
2022-12-08T03:16:34.290Z,27.60
2022-12-08T03:22:03.451Z,32.40
2022-12-08T03:27:28.236Z,31.70
2022-12-08T03:32:56.929Z,27.00
2022-12-08T03:38:18.795Z,31.30
2022-12-08T03:43:40.614Z,23.60
2022-12-08T03:49:02.643Z,22.30
2022-12-08T03:54:24.677Z,44.00
2022-12-08T03:59:46.597Z,25.30
2022-12-08T04:05:08.833Z,26.30
2022-12-08T04:10:31.264Z,92.00
2022-12-08T04:15:53.240Z,60.40
2022-12-08T04:21:15.331Z,86.50
2022-12-08T04:26:37.356Z,74.70
2022-12-08T04:31:59.172Z,48.20
2022-12-08T04:37:21.208Z,38.60
2022-12-08T04:42:43.342Z,59.50
2022-12-08T04:48:05.705Z,63.20
2022-12-08T04:53:28.103Z,29.70
2022-12-08T04:58:50.032Z,22.70
2022-12-08T05:04:11.875Z,24.70
2022-12-08T05:09:33.891Z,21.40
2022-12-08T05:14:55.522Z,21.50
2022-12-08T05:20:17.649Z,29.50
2022-12-08T05:25:39.579Z,21.60
2022-12-08T05:31:01.622Z,25.50
2022-12-08T05:36:24.039Z,21.10
2022-12-08T05:41:45.620Z,21.60
2022-12-08T05:47:07.708Z,25.50
2022-12-08T05:52:29.828Z,31.40
2022-12-08T05:57:51.760Z,21.30
2022-12-08T06:03:14.980Z,20.00
2022-12-08T06:08:36.924Z,23.50
2022-12-08T06:14:02.201Z,22.30
2022-12-08T06:19:23.896Z,17.50
2022-12-08T06:24:46.019Z,24.50
2022-12-08T06:30:08.756Z,23.20
2022-12-08T06:35:30.961Z,23.50
2022-12-08T06:40:59.135Z,27.60
2022-12-08T06:46:21.196Z,21.90
2022-12-08T06:51:43.128Z,25.30
2022-12-08T06:57:05.428Z,20.40
2022-12-08T07:02:27.375Z,21.30
2022-12-08T07:07:49.143Z,20.60
2022-12-08T07:13:11.012Z,22.10
2022-12-08T07:18:33.349Z,26.50
2022-12-08T07:23:57.854Z,33.30
2022-12-08T07:29:25.961Z,66.70
2022-12-08T07:34:47.960Z,37.40
2022-12-08T07:40:10.592Z,50.40
2022-12-08T07:45:32.640Z,49.30
2022-12-08T07:51:01.523Z,30.40
2022-12-08T07:56:23.907Z,38.40
2022-12-08T08:01:45.796Z,34.60
2022-12-08T08:07:07.983Z,38.00
2022-12-08T08:12:31.842Z,35.00
2022-12-08T08:17:54.347Z,37.40
2022-12-08T08:23:16.368Z,46.10
2022-12-08T08:28:38.494Z,62.30
2022-12-08T08:34:05.241Z,39.30
2022-12-08T08:39:27.371Z,38.80
2022-12-08T08:44:49.098Z,42.60
2022-12-08T08:50:11.039Z,34.90
2022-12-08T08:55:33.058Z,56.60
2022-12-08T09:00:55.088Z,61.40
2022-12-08T09:06:17.336Z,39.00
2022-12-08T09:11:39.352Z,53.20
2022-12-08T09:17:01.280Z,46.30
2022-12-08T09:22:23.910Z,64.50
2022-12-08T09:27:45.792Z,43.80
2022-12-08T09:33:07.551Z,52.90
2022-12-08T09:38:29.498Z,39.40
2022-12-08T09:43:54.235Z,23.60
2022-12-08T09:49:19.320Z,39.70
2022-12-08T09:54:41.307Z,28.20
2022-12-08T10:00:06.266Z,25.90
2022-12-08T10:05:30.247Z,22.90
2022-12-08T10:10:59.229Z,26.20
2022-12-08T10:16:34.265Z,24.40
2022-12-08T10:21:57.344Z,19.20
2022-12-08T10:27:19.763Z,26.00
2022-12-08T10:32:45.319Z,24.10
2022-12-08T10:38:23.805Z,29.40
2022-12-08T10:43:51.257Z,17.90
2022-12-08T10:49:26.259Z,24.00
2022-12-08T10:54:52.597Z,22.70
2022-12-08T11:00:18.783Z,29.30
2022-12-08T11:05:42.051Z,25.50
2022-12-08T11:11:03.880Z,22.80
2022-12-08T11:16:25.831Z,33.00
2022-12-08T11:21:48.391Z,32.60
2022-12-08T11:27:10.522Z,32.70
2022-12-08T11:32:32.572Z,27.30
2022-12-08T11:38:13.475Z,45.30
2022-12-08T11:43:57.910Z,33.10
2022-12-08T11:49:20.751Z,32.00
2022-12-08T11:54:50.878Z,40.10
2022-12-08T12:00:25.570Z,26.40
2022-12-08T12:06:18.573Z,31.30
2022-12-08T12:12:16.883Z,18.30
2022-12-08T12:17:50.134Z,29.70
2022-12-08T12:23:17.485Z,25.90
2022-12-08T12:28:50.009Z,17.20
2022-12-08T12:34:18.607Z,26.00
2022-12-08T12:39:52.873Z,18.90
2022-12-08T12:45:17.419Z,14.40
2022-12-08T12:50:47.653Z,13.60
2022-12-08T12:56:12.712Z,16.70
2022-12-08T13:01:49.225Z,26.80
2022-12-08T13:07:21.932Z,20.30
2022-12-08T13:12:44.827Z,26.70
2022-12-08T13:18:08.059Z,29.20
2022-12-08T13:23:43.466Z,22.90
2022-12-08T13:29:21.788Z,25.80
2022-12-08T13:34:49.237Z,24.50
2022-12-08T13:40:28.328Z,29.30
2022-12-08T13:57:29.931Z,48.40
2022-12-08T14:08:57.019Z,28.00
2022-12-08T14:20:12.103Z,30.60
2022-12-08T14:25:35.625Z,35.60
2022-12-08T14:30:57.890Z,45.00
2022-12-08T14:36:21.144Z,49.20
2022-12-08T14:42:01.292Z,48.30
2022-12-08T14:47:23.011Z,38.90
2022-12-08T14:52:47.551Z,50.60
2022-12-08T14:58:21.108Z,43.70
2022-12-08T15:03:48.858Z,66.60
2022-12-08T15:09:35.287Z,64.30
2022-12-08T15:15:12.070Z,42.20
2022-12-08T15:20:41.430Z,63.40
2022-12-08T15:26:04.759Z,70.70
2022-12-08T15:31:26.588Z,69.80
2022-12-08T15:36:50.322Z,92.30
2022-12-08T15:42:14.939Z,143.30
2022-12-08T15:47:36.891Z,125.20
2022-12-08T15:52:59.137Z,121.90
2022-12-08T16:04:59.934Z,86.00
2022-12-08T16:09:50.053Z,122.90
2022-12-08T16:27:42.609Z,90.10
2022-12-08T16:32:19.672Z,72.30
2022-12-08T16:37:42.075Z,73.20
2022-12-08T16:43:04.161Z,67.70
2022-12-08T16:48:26.190Z,77.40
2022-12-08T16:53:47.920Z,77.90
2022-12-08T16:59:10.055Z,124.70
2022-12-08T17:04:32.484Z,135.10
2022-12-08T17:09:54.409Z,119.80
2022-12-08T17:15:19.353Z,121.20
2022-12-08T17:20:41.344Z,132.10
2022-12-08T17:26:03.941Z,95.40
2022-12-08T17:31:29.568Z,94.60
2022-12-08T17:36:52.692Z,111.90
2022-12-08T17:42:15.028Z,110.20
2022-12-08T17:47:37.348Z,102.80
2022-12-08T17:52:59.582Z,132.20
2022-12-08T17:58:23.017Z,114.20
2022-12-08T18:03:44.742Z,153.90
2022-12-08T18:09:07.948Z,133.50
2022-12-08T18:14:30.082Z,137.10
2022-12-08T18:19:52.238Z,94.60
2022-12-08T18:25:15.373Z,102.50
2022-12-08T18:30:40.100Z,116.80
2022-12-08T18:36:06.998Z,79.00
2022-12-08T18:41:28.885Z,105.10
2022-12-08T18:46:51.517Z,102.20
2022-12-08T18:52:13.547Z,84.30
2022-12-08T18:57:39.434Z,78.30
2022-12-08T19:03:01.796Z,115.00
2022-12-08T19:08:29.668Z,133.90
2022-12-08T19:13:54.209Z,133.00
2022-12-08T19:19:16.343Z,120.40
2022-12-08T19:24:38.314Z,123.60
2022-12-08T19:30:00.301Z,143.00
2022-12-08T19:35:22.171Z,165.20
2022-12-08T19:41:18.077Z,181.20
2022-12-08T19:46:40.662Z,133.50
2022-12-08T19:52:03.306Z,132.50
2022-12-08T19:57:25.169Z,131.70
2022-12-08T20:02:48.167Z,154.10
2022-12-08T20:08:10.515Z,184.60
2022-12-08T20:13:41.696Z,194.90
2022-12-08T20:19:03.991Z,167.30
2022-12-08T20:24:25.965Z,145.50
2022-12-08T20:29:48.304Z,134.00
2022-12-08T20:35:10.261Z,132.80
2022-12-08T20:40:32.147Z,176.60
2022-12-08T20:45:53.894Z,161.50
2022-12-08T20:51:18.475Z,115.40
2022-12-08T20:56:46.609Z,117.80
2022-12-08T21:02:11.154Z,76.30
2022-12-08T21:07:34.284Z,66.30
2022-12-08T21:12:56.178Z,67.80
2022-12-08T21:18:18.623Z,74.30
2022-12-08T21:23:41.759Z,96.40
2022-12-08T21:29:04.586Z,73.80
2022-12-08T21:34:31.767Z,62.80
2022-12-08T21:39:53.851Z,76.20
2022-12-08T21:45:18.445Z,82.80
2022-12-08T21:50:40.509Z,71.20
2022-12-08T21:56:02.739Z,65.20
2022-12-08T22:01:24.812Z,78.50
2022-12-08T22:06:47.749Z,85.30
2022-12-08T22:12:12.222Z,78.90
2022-12-08T22:17:39.812Z,74.20
2022-12-08T22:23:02.303Z,66.60
2022-12-08T22:28:25.694Z,91.80
2022-12-08T22:33:48.939Z,118.20
2022-12-08T22:39:11.017Z,124.00
2022-12-08T22:44:33.048Z,139.00
2022-12-08T22:49:54.876Z,152.80
2022-12-08T22:55:17.146Z,124.30
2022-12-08T23:00:39.680Z,146.80
2022-12-08T23:06:02.264Z,137.80
2022-12-08T23:11:29.278Z,165.70
2022-12-08T23:16:51.286Z,123.70
2022-12-08T23:22:13.081Z,104.80
2022-12-08T23:27:36.074Z,95.40
2022-12-08T23:32:58.360Z,77.80
2022-12-08T23:38:20.084Z,77.00
2022-12-08T23:43:50.296Z,79.50
2022-12-08T23:49:12.425Z,87.20
2022-12-08T23:54:34.238Z,87.50
2022-12-08T23:59:56.230Z,79.00
